Time;durP1;ratioP1;P1;durP2;ratioP2;P2;SDS_P1;SDS_P2;PMS_P1;PMS_P2;Temp;Humidity;BMP_temperature;BMP_pressure;BME280_temperature;BME280_humidity;BME280_pressure;Samples;Min_cycle;Max_cycle;Signal;HPM_P1;HPM_P2
2023/02/05 00:01:52;;;;;;;12.57;8.23;;;22.20;99.90;;;;;;5063359;28;20394;-62
2023/02/05 00:04:18;;;;;;;11.50;8.25;;;22.30;99.90;;;;;;5062941;28;20422;-62
2023/02/05 00:06:45;;;;;;;11.40;7.60;;;22.20;99.90;;;;;;5061649;28;20131;-60
2023/02/05 00:09:10;;;;;;;12.02;8.00;;;22.20;99.90;;;;;;5060485;28;20060;-60
2023/02/05 00:11:36;;;;;;;12.95;8.48;;;22.20;99.90;;;;;;5060199;28;20064;-60
2023/02/05 00:14:02;;;;;;;13.73;8.20;;;22.20;99.90;;;;;;5045300;28;20021;-60
2023/02/05 00:16:28;;;;;;;12.13;8.55;;;22.10;99.90;;;;;;5037720;28;20094;-60
2023/02/05 00:18:55;;;;;;;11.90;8.45;;;22.10;99.90;;;;;;5066231;28;20466;-60
2023/02/05 00:21:22;;;;;;;13.40;8.98;;;22.10;99.90;;;;;;5071448;28;20036;-60
2023/02/05 00:23:48;;;;;;;13.00;8.38;;;22.10;99.90;;;;;;5072443;28;20028;-61
2023/02/05 00:26:14;;;;;;;13.68;8.57;;;22.10;99.90;;;;;;5072332;28;20028;-61
2023/02/05 00:28:40;;;;;;;14.52;9.40;;;22.00;99.90;;;;;;5071926;28;20478;-60
2023/02/05 00:31:15;;;;;;;14.10;9.50;;;22.00;99.90;;;;;;5072782;28;20027;-60
2023/02/05 00:33:41;;;;;;;13.15;9.00;;;22.00;99.90;;;;;;5072779;28;20021;-60
2023/02/05 00:36:08;;;;;;;12.20;8.70;;;22.00;99.90;;;;;;5072601;28;20115;-60
2023/02/05 00:38:35;;;;;;;14.30;9.27;;;22.00;99.90;;;;;;5072683;28;20035;-60
2023/02/05 00:41:01;;;;;;;13.77;9.20;;;22.00;99.90;;;;;;5072737;28;20021;-60
2023/02/05 00:43:27;;;;;;;15.30;10.00;;;21.90;99.90;;;;;;5055217;28;20112;-62
2023/02/05 00:45:53;;;;;;;14.38;9.98;;;21.90;99.90;;;;;;5072925;28;20115;-62
2023/02/05 00:48:19;;;;;;;14.70;9.63;;;21.90;99.90;;;;;;5072751;28;20056;-61
2023/02/05 00:50:50;;;;;;;14.43;10.20;;;21.90;99.90;;;;;;5072525;28;20028;-61
2023/02/05 00:53:16;;;;;;;15.68;11.13;;;21.90;99.90;;;;;;5072618;28;20024;-62
2023/02/05 00:55:42;;;;;;;15.80;10.48;;;21.80;99.90;;;;;;5072442;28;20016;-62
2023/02/05 00:58:08;;;;;;;17.65;10.85;;;21.80;99.90;;;;;;5072583;28;20036;-60
2023/02/05 01:00:33;;;;;;;17.85;10.98;;;21.90;99.90;;;;;;5087442;23;20529;-56
2023/02/05 01:03:00;;;;;;;16.42;10.90;;;21.80;99.90;;;;;;5072293;28;20067;-58
2023/02/05 01:05:26;;;;;;;14.75;10.60;;;21.80;99.90;;;;;;5072324;28;20040;-58
2023/02/05 01:07:51;;;;;;;13.45;9.85;;;21.80;99.90;;;;;;5072189;28;20025;-58
2023/02/05 01:10:17;;;;;;;16.50;11.50;;;21.80;99.90;;;;;;5072025;28;20035;-58
2023/02/05 01:12:43;;;;;;;17.15;11.02;;;21.80;99.90;;;;;;5072155;28;20025;-58
2023/02/05 01:15:12;;;;;;;17.33;11.93;;;21.70;99.90;;;;;;5072027;28;20016;-55
2023/02/05 01:17:38;;;;;;;15.80;11.20;;;21.70;99.90;;;;;;5072007;28;20124;-58
2023/02/05 01:20:04;;;;;;;19.45;11.18;;;21.70;99.90;;;;;;5072109;28;20451;-58
2023/02/05 01:22:31;;;;;;;14.88;9.90;;;21.70;99.90;;;;;;5071996;28;20035;-58
2023/02/05 01:24:57;;;;;;;17.48;11.40;;;21.70;99.90;;;;;;5072309;28;20029;-58
2023/02/05 01:27:23;;;;;;;20.02;11.77;;;21.70;99.90;;;;;;5071945;28;20032;-58
2023/02/05 01:29:50;;;;;;;18.85;11.48;;;21.60;99.90;;;;;;5071973;28;20017;-55
2023/02/05 01:32:16;;;;;;;17.30;12.43;;;21.60;99.90;;;;;;5054037;28;20056;-58
2023/02/05 01:34:43;;;;;;;18.55;12.20;;;21.60;99.90;;;;;;5071958;28;20020;-55
2023/02/05 01:37:09;;;;;;;18.03;12.23;;;21.60;99.90;;;;;;5071993;28;20033;-55
2023/02/05 01:39:36;;;;;;;17.38;11.07;;;21.60;99.90;;;;;;5071883;28;20027;-56
2023/02/05 01:42:04;;;;;;;20.05;11.80;;;21.60;99.90;;;;;;5053871;28;20130;-56
2023/02/05 01:44:30;;;;;;;;;;;21.60;99.90;;;;;;5072570;28;20052;-56
2023/02/05 01:46:56;;;;;;;18.25;12.15;;;21.50;99.90;;;;;;5071764;28;19959;-56
2023/02/05 01:49:41;;;;;;;21.08;13.27;;;21.50;99.90;;;;;;5071852;28;20078;-57
2023/02/05 01:52:15;;;;;;;16.38;12.15;;;21.50;99.90;;;;;;5071791;28;20386;-57
2023/02/05 01:54:45;;;;;;;19.42;12.38;;;21.50;99.90;;;;;;5071874;28;20029;-56
2023/02/05 01:57:19;;;;;;;21.30;12.48;;;21.40;99.90;;;;;;5071790;28;20035;-57
2023/02/05 01:59:47;;;;;;;20.25;12.88;;;21.40;99.90;;;;;;5050670;28;20071;-57
2023/02/05 02:02:13;;;;;;;16.75;12.32;;;21.40;99.90;;;;;;5070456;28;20086;-57
2023/02/05 02:04:42;;;;;;;18.35;12.23;;;21.40;99.90;;;;;;5086636;28;20517;-55
2023/02/05 02:07:16;;;;;;;18.08;11.77;;;21.40;99.90;;;;;;5087704;28;20546;-56
2023/02/05 02:09:43;;;;;;;18.58;12.35;;;21.30;99.90;;;;;;5075185;28;20479;-55
2023/02/05 02:12:11;;;;;;;;;;;21.40;99.90;;;;;;5081109;28;20025;-55
2023/02/05 02:14:39;;;;;;;;;;;21.30;99.90;;;;;;5075753;28;20365;-56
2023/02/05 02:17:06;;;;;;;19.05;12.65;;;21.30;99.90;;;;;;5091457;28;19904;-56
2023/02/05 02:19:37;;;;;;;18.67;12.43;;;21.30;99.90;;;;;;5089122;28;20434;-55
2023/02/05 02:22:20;;;;;;;16.95;11.63;;;21.30;99.90;;;;;;5071159;28;20021;-55
2023/02/05 02:25:23;;;;;;;16.80;12.50;;;21.30;99.90;;;;;;5088294;28;20020;-55
2023/02/05 02:27:58;;;;;;;15.80;11.68;;;21.30;99.90;;;;;;5091094;28;20067;-54
2023/02/05 02:30:58;;;;;;;16.67;11.77;;;21.20;99.90;;;;;;5071075;28;20069;-55
2023/02/05 02:33:42;;;;;;;21.35;12.63;;;21.20;99.90;;;;;;5091540;28;20020;-54
2023/02/05 02:36:28;;;;;;;19.83;12.52;;;21.20;99.90;;;;;;5094712;28;20028;-55
2023/02/05 02:39:24;;;;;;;18.23;11.60;;;21.20;99.90;;;;;;5089415;28;20555;-55
2023/02/05 02:41:57;;;;;;;18.65;11.63;;;21.20;99.90;;;;;;5074233;28;20021;-55
2023/02/05 02:44:36;;;;;;;16.50;11.48;;;21.10;99.90;;;;;;5085459;28;20099;-55
2023/02/05 02:47:19;;;;;;;17.75;12.00;;;21.10;99.90;;;;;;5081377;28;20036;-55
2023/02/05 02:49:57;;;;;;;15.63;11.52;;;21.10;99.90;;;;;;5081236;28;20075;-55
2023/02/05 02:52:25;;;;;;;15.88;11.15;;;21.10;99.90;;;;;;5087918;28;20035;-55
2023/02/05 02:54:56;;;;;;;15.68;11.38;;;21.10;99.90;;;;;;5088256;28;20028;-55
2023/02/05 02:57:25;;;;;;;16.20;11.23;;;21.10;99.90;;;;;;5094663;28;20020;-54
2023/02/05 02:59:54;;;;;;;14.95;11.40;;;21.10;99.90;;;;;;5081751;28;20130;-54
2023/02/05 03:02:20;;;;;;;18.30;11.70;;;21.00;99.90;;;;;;5067937;28;20047;-55
2023/02/05 03:04:56;;;;;;;17.73;12.18;;;21.00;99.90;;;;;;5080821;28;20028;-56
2023/02/05 03:07:33;;;;;;;15.60;11.00;;;21.00;99.90;;;;;;5074038;28;20033;-56
2023/02/05 03:10:06;;;;;;;16.75;10.55;;;21.00;99.90;;;;;;5087428;28;20028;-56
2023/02/05 03:12:31;;;;;;;13.55;9.77;;;21.00;99.90;;;;;;5087934;28;20067;-56
2023/02/05 03:14:57;;;;;;;15.50;11.07;;;21.00;99.90;;;;;;5074106;28;20048;-56
2023/02/05 03:17:25;;;;;;;17.73;11.00;;;21.00;99.90;;;;;;5074099;28;20054;-55
2023/02/05 03:20:14;;;;;;;16.77;10.77;;;21.00;99.90;;;;;;5087276;28;20024;-55
2023/02/05 03:22:40;;;;;;;15.20;10.55;;;21.00;99.90;;;;;;5073919;28;20490;-56
2023/02/05 03:25:07;;;;;;;14.65;9.93;;;20.90;99.90;;;;;;5081963;28;20050;-56
2023/02/05 03:27:33;;;;;;;13.75;9.80;;;20.90;99.90;;;;;;5079486;28;20549;-56
2023/02/05 03:30:00;;;;;;;16.27;10.52;;;20.90;99.90;;;;;;5073612;28;20031;-56
2023/02/05 03:33:04;;;;;;;14.30;9.88;;;20.90;99.90;;;;;;5073739;28;20036;-56
2023/02/05 03:35:38;;;;;;;13.48;8.90;;;20.90;99.90;;;;;;5063717;28;20028;-57
2023/02/05 03:38:27;;;;;;;15.00;9.70;;;20.80;99.90;;;;;;5086925;28;20046;-57
2023/02/05 03:41:13;;;;;;;14.32;9.15;;;20.90;99.90;;;;;;5073713;28;20126;-56
2023/02/05 03:44:08;;;;;;;12.32;8.88;;;20.80;99.90;;;;;;5062620;28;20035;-56
2023/02/05 03:46:56;;;;;;;19.55;10.40;;;20.80;99.90;;;;;;5046666;28;20036;-55
2023/02/05 03:49:51;;;;;;;;;;;20.80;99.90;;;;;;5075063;28;20107;-54
2023/02/05 03:52:34;;;;;;;14.15;9.30;;;20.80;99.90;;;;;;5044853;28;19912;-55
2023/02/05 03:55:08;;;;;;;12.23;8.00;;;20.80;99.90;;;;;;5059463;28;20031;-55
2023/02/05 03:57:52;;;;;;;10.80;8.15;;;20.80;99.90;;;;;;5086524;28;20020;-55
2023/02/05 04:00:19;;;;;;;12.35;8.57;;;20.70;99.90;;;;;;5065696;28;20424;-55
2023/02/05 04:02:45;;;;;;;11.85;8.57;;;20.70;99.90;;;;;;5079691;28;20106;-55
2023/02/05 04:05:11;;;;;;;13.10;8.38;;;20.70;99.90;;;;;;5066288;28;20053;-55
2023/02/05 04:07:37;;;;;;;12.90;7.95;;;20.70;99.90;;;;;;5088035;28;20060;-54
2023/02/05 04:10:03;;;;;;;12.23;8.23;;;20.70;99.90;;;;;;5093448;28;20024;-54
2023/02/05 04:12:28;;;;;;;10.15;7.70;;;20.60;99.90;;;;;;5092706;28;20043;-55
2023/02/05 04:14:54;;;;;;;11.60;8.15;;;20.60;99.90;;;;;;5072970;28;20020;-55
2023/02/05 04:17:20;;;;;;;10.18;7.10;;;20.60;99.90;;;;;;5086076;28;20482;-55
2023/02/05 04:19:46;;;;;;;10.55;8.02;;;20.60;99.90;;;;;;5054721;28;20021;-55
2023/02/05 04:22:11;;;;;;;10.75;7.85;;;20.70;99.90;;;;;;5072732;28;20037;-55
2023/02/05 04:24:37;;;;;;;12.25;7.63;;;20.60;99.90;;;;;;5076834;28;20043;-55
2023/02/05 04:27:03;;;;;;;10.50;7.20;;;20.60;99.90;;;;;;5083864;28;20064;-55
2023/02/05 04:29:28;;;;;;;11.75;7.75;;;20.60;99.90;;;;;;5074366;28;20075;-55
2023/02/05 04:31:54;;;;;;;10.70;7.65;;;20.60;99.90;;;;;;5092907;28;20051;-55
2023/02/05 04:34:20;;;;;;;9.98;7.45;;;20.60;99.90;;;;;;5079460;28;20020;-55
2023/02/05 04:36:46;;;;;;;12.27;7.50;;;20.60;99.90;;;;;;5084761;28;20470;-55
2023/02/05 04:39:12;;;;;;;9.30;7.07;;;20.50;99.90;;;;;;5086450;28;20024;-55
2023/02/05 04:41:38;;;;;;;9.02;7.00;;;20.50;99.90;;;;;;5073111;28;20027;-54
2023/02/05 04:44:05;;;;;;;9.48;6.82;;;20.50;99.90;;;;;;5072354;28;20025;-55
2023/02/05 04:46:31;;;;;;;9.05;6.55;;;20.50;99.90;;;;;;5071876;28;20405;-58
2023/02/05 04:48:57;;;;;;;10.45;7.05;;;20.50;99.90;;;;;;5083524;28;20020;-57
2023/02/05 04:51:22;;;;;;;9.75;7.10;;;20.50;99.90;;;;;;5074137;28;20048;-55
2023/02/05 04:53:48;;;;;;;12.15;7.38;;;20.50;99.90;;;;;;5072296;28;20477;-55
2023/02/05 04:56:16;;;;;;;10.30;7.18;;;20.50;99.90;;;;;;5071251;28;20443;-56
2023/02/05 04:58:42;;;;;;;;;;;20.50;99.90;;;;;;5081596;28;20522;-56
2023/02/05 05:01:15;;;;;;;9.05;6.20;;;20.50;99.90;;;;;;5078940;28;20007;-54
2023/02/05 05:03:42;;;;;;;8.18;5.80;;;20.50;99.90;;;;;;5080949;28;20197;-55
2023/02/05 05:06:08;;;;;;;9.20;6.50;;;20.50;99.90;;;;;;5076177;28;20106;-55
2023/02/05 05:08:34;;;;;;;10.60;7.03;;;20.40;99.90;;;;;;5080209;28;20119;-55
2023/02/05 05:11:08;;;;;;;9.48;6.13;;;20.40;99.90;;;;;;5078184;28;20032;-54
2023/02/05 05:13:35;;;;;;;10.20;6.35;;;20.40;99.90;;;;;;5085469;28;20066;-54
2023/02/05 05:16:02;;;;;;;8.67;6.23;;;20.40;99.90;;;;;;5072053;28;20564;-53
2023/02/05 05:18:28;;;;;;;9.98;6.50;;;20.40;99.90;;;;;;5084928;28;20293;-54
2023/02/05 05:20:53;;;;;;;8.65;5.78;;;20.40;99.90;;;;;;5071980;28;20421;-53
2023/02/05 05:23:19;;;;;;;8.60;5.97;;;20.40;99.90;;;;;;5077146;28;20024;-54
2023/02/05 05:25:46;;;;;;;9.70;6.57;;;20.40;99.90;;;;;;5079964;28;20074;-53
2023/02/05 05:28:14;;;;;;;6.63;5.65;;;20.40;99.90;;;;;;5071377;28;20024;-53
2023/02/05 05:30:42;;;;;;;9.18;5.45;;;20.40;99.90;;;;;;5071899;28;20029;-56
2023/02/05 05:33:08;;;;;;;10.15;6.15;;;20.30;99.90;;;;;;5086782;28;20452;-56
2023/02/05 05:35:34;;;;;;;8.18;6.10;;;20.30;99.90;;;;;;5071791;28;20035;-56
2023/02/05 05:38:01;;;;;;;9.48;6.13;;;20.30;99.90;;;;;;5071506;28;20017;-56
2023/02/05 05:45:58;;;;;;;8.70;6.27;;;20.30;99.90;;;;;;5085924;28;20039;-56
2023/02/05 05:48:24;;;;;;;12.13;6.97;;;20.30;99.90;;;;;;5078366;28;20256;-55
2023/02/05 05:50:50;;;;;;;9.27;6.03;;;20.30;99.90;;;;;;5091965;28;20028;-55
2023/02/05 05:53:15;;;;;;;10.45;6.18;;;20.30;99.90;;;;;;5087872;28;20444;-55
2023/02/05 05:55:42;;;;;;;8.15;5.82;;;20.30;99.90;;;;;;5082023;28;20036;-55
2023/02/05 05:58:08;;;;;;;8.45;5.95;;;20.20;99.90;;;;;;5077703;28;20031;-55
2023/02/05 06:00:35;;;;;;;11.93;6.28;;;20.20;99.90;;;;;;5082495;28;20531;-55
2023/02/05 06:03:01;;;;;;;9.57;5.90;;;20.20;99.90;;;;;;5084706;28;20035;-55
2023/02/05 06:05:27;;;;;;;7.35;5.22;;;20.20;99.90;;;;;;5071161;28;20017;-55
2023/02/05 06:07:53;;;;;;;8.32;5.35;;;20.20;99.90;;;;;;5074112;28;20108;-57
2023/02/05 06:10:18;;;;;;;6.53;5.35;;;20.20;99.90;;;;;;5095422;28;20059;-57
2023/02/05 06:12:45;;;;;;;7.90;4.88;;;20.20;99.90;;;;;;5092901;28;20423;-57
2023/02/05 06:15:10;;;;;;;8.00;5.78;;;20.20;99.90;;;;;;5075372;28;20019;-57
2023/02/05 06:17:36;;;;;;;8.70;5.60;;;20.20;99.90;;;;;;5088495;28;20024;-56
2023/02/05 06:20:03;;;;;;;8.50;5.82;;;20.20;99.90;;;;;;5083615;28;20081;-56
2023/02/05 06:22:29;;;;;;;7.65;4.88;;;20.20;99.90;;;;;;5081017;28;20032;-56
2023/02/05 06:24:55;;;;;;;6.88;5.18;;;20.20;99.90;;;;;;5057026;28;20474;-58
2023/02/05 06:27:21;;;;;;;8.82;5.75;;;20.10;99.90;;;;;;5075086;28;20029;-57
2023/02/05 06:29:46;;;;;;;6.88;5.03;;;20.10;99.90;;;;;;5074759;28;20402;-56
2023/02/05 06:32:12;;;;;;;5.97;4.32;;;20.20;99.90;;;;;;5088418;28;20020;-58
2023/02/05 06:34:38;;;;;;;7.97;5.28;;;20.10;99.90;;;;;;5076845;28;20043;-57
2023/02/05 06:37:04;;;;;;;7.35;4.95;;;20.10;99.90;;;;;;5095157;28;20020;-57
2023/02/05 06:39:29;;;;;;;8.23;5.55;;;20.10;99.90;;;;;;5071979;28;20017;-56
2023/02/05 06:41:55;;;;;;;6.35;5.20;;;20.10;99.90;;;;;;5056581;28;20077;-56
2023/02/05 06:44:21;;;;;;;7.18;5.07;;;20.10;99.90;;;;;;5074335;28;20149;-57
2023/02/05 06:46:47;;;;;;;7.93;5.13;;;20.10;99.90;;;;;;5074633;28;20032;-55
2023/02/05 06:49:12;;;;;;;6.55;5.18;;;20.10;99.90;;;;;;5076046;28;20043;-56
2023/02/05 06:51:38;;;;;;;9.50;5.03;;;20.00;99.90;;;;;;5086648;28;20024;-56
2023/02/05 06:54:04;;;;;;;7.88;5.47;;;20.00;99.90;;;;;;5074172;28;20074;-56
2023/02/05 06:56:29;;;;;;;5.88;4.47;;;20.00;99.90;;;;;;5074373;28;20110;-55
2023/02/05 06:58:55;;;;;;;6.68;4.35;;;20.00;99.90;;;;;;5074168;28;20462;-55
2023/02/05 07:01:21;;;;;;;6.55;5.35;;;20.00;99.90;;;;;;5078942;28;20463;-56
2023/02/05 07:03:47;;;;;;;7.00;5.38;;;20.00;99.90;;;;;;5094193;28;20473;-58
2023/02/05 07:06:13;;;;;;;6.30;4.80;;;20.00;99.90;;;;;;5094678;28;20028;-56
2023/02/05 07:08:39;;;;;;;6.90;5.07;;;19.90;99.90;;;;;;5084271;28;20016;-56
2023/02/05 07:11:05;;;;;;;7.65;5.15;;;20.00;99.90;;;;;;5074125;28;21229;-56
2023/02/05 07:13:30;;;;;;;7.95;5.13;;;20.00;99.90;;;;;;5074234;28;20021;-57
2023/02/05 07:15:56;;;;;;;7.30;4.85;;;19.90;99.90;;;;;;5068971;28;20035;-56
2023/02/05 07:18:23;;;;;;;11.02;5.63;;;20.00;99.90;;;;;;5083613;28;20020;-55
2023/02/05 07:20:49;;;;;;;6.57;4.53;;;19.90;99.90;;;;;;5085838;28;20080;-59
2023/02/05 07:23:14;;;;;;;6.75;4.95;;;20.00;99.90;;;;;;5087392;28;20484;-54
2023/02/05 07:25:40;;;;;;;8.15;4.82;;;19.90;99.90;;;;;;5093649;28;20028;-59
2023/02/05 07:28:07;;;;;;;6.00;4.40;;;19.90;99.90;;;;;;5066262;28;20031;-60
2023/02/05 07:30:36;;;;;;;7.72;5.28;;;19.90;99.90;;;;;;5073771;28;20466;-54
2023/02/05 07:33:03;;;;;;;9.02;4.25;;;19.90;99.90;;;;;;5060700;28;20036;-53
2023/02/05 07:35:29;;;;;;;7.97;4.22;;;19.90;99.90;;;;;;5055713;28;20032;-63
2023/02/05 07:37:55;;;;;;;6.25;4.47;;;19.90;99.90;;;;;;5074048;28;20020;-65
2023/02/05 07:40:21;;;;;;;6.63;4.60;;;19.90;99.90;;;;;;5055632;28;20032;-64
2023/02/05 07:42:47;;;;;;;8.45;4.32;;;19.90;99.90;;;;;;5072931;28;20496;-53
2023/02/05 07:45:12;;;;;;;8.25;4.50;;;20.00;99.90;;;;;;5073198;28;20027;-54
2023/02/05 07:47:38;;;;;;;8.13;4.68;;;19.90;99.90;;;;;;5073389;28;21019;-54
2023/02/05 07:50:05;;;;;;;5.90;4.20;;;19.90;99.90;;;;;;5073738;28;20059;-52
2023/02/05 07:52:32;;;;;;;8.90;4.85;;;20.00;99.90;;;;;;5072830;28;20028;-51
2023/02/05 07:54:57;;;;;;;7.60;4.90;;;20.00;99.90;;;;;;5073360;28;20017;-53
2023/02/05 07:57:25;;;;;;;6.63;4.70;;;20.00;99.90;;;;;;5073023;28;20082;-52
2023/02/05 07:59:51;;;;;;;7.10;4.32;;;20.00;99.90;;;;;;5072752;28;20040;-53
2023/02/05 08:02:17;;;;;;;6.07;4.60;;;20.10;99.90;;;;;;5073270;28;20032;-52
2023/02/05 08:04:43;;;;;;;6.55;4.70;;;20.10;99.90;;;;;;5073016;28;20035;-52
2023/02/05 08:07:11;;;;;;;7.43;4.90;;;20.10;99.90;;;;;;5072238;28;20041;-52
2023/02/05 08:09:37;;;;;;;6.88;5.20;;;20.10;99.90;;;;;;5072699;28;20051;-54
2023/02/05 08:12:04;;;;;;;9.80;4.70;;;20.10;99.90;;;;;;5072444;28;20071;-54
2023/02/05 08:14:30;;;;;;;9.90;5.30;;;20.20;99.90;;;;;;5054528;28;20031;-59
2023/02/05 08:16:57;;;;;;;6.40;4.70;;;20.20;99.90;;;;;;5072113;28;20024;-56
2023/02/05 08:19:24;;;;;;;8.88;5.30;;;20.20;99.90;;;;;;5072510;28;20479;-55
2023/02/05 08:21:50;;;;;;;11.70;6.00;;;20.20;99.90;;;;;;5072795;28;20054;-54
2023/02/05 08:24:16;;;;;;;8.40;5.97;;;20.20;99.90;;;;;;5054745;28;20012;-54
2023/02/05 08:26:42;;;;;;;9.93;5.30;;;20.30;99.90;;;;;;5072665;28;20367;-53
2023/02/05 08:29:09;;;;;;;8.75;5.53;;;20.30;99.90;;;;;;5072143;28;20024;-53
2023/02/05 08:31:35;;;;;;;9.98;5.55;;;20.30;99.90;;;;;;5071591;28;20035;-51
2023/02/05 08:34:01;;;;;;;9.02;5.78;;;20.30;99.90;;;;;;5072385;28;20210;-51
2023/02/05 08:36:28;;;;;;;10.02;6.72;;;20.30;99.90;;;;;;5072180;28;20378;-52
2023/02/05 08:38:54;;;;;;;11.63;6.18;;;20.40;99.90;;;;;;5072306;28;20528;-56
2023/02/05 08:41:20;;;;;;;10.25;5.70;;;20.40;99.90;;;;;;5072641;28;20105;-51
2023/02/05 08:43:48;;;;;;;7.53;5.97;;;20.40;99.90;;;;;;5058549;28;20024;-51
2023/02/05 08:46:18;;;;;;;9.20;6.10;;;20.40;99.90;;;;;;5072262;28;20397;-53
2023/02/05 08:48:45;;;;;;;10.48;6.03;;;20.40;99.90;;;;;;5072334;28;20095;-51
2023/02/05 08:51:12;;;;;;;10.20;6.30;;;20.40;99.90;;;;;;5062480;28;20086;-58
2023/02/05 08:53:39;;;;;;;8.90;6.25;;;20.50;99.90;;;;;;5054282;28;20103;-56
2023/02/05 08:56:07;;;;;;;9.88;5.95;;;20.50;99.90;;;;;;5071533;28;20024;-51
2023/02/05 08:58:33;;;;;;;8.07;5.97;;;20.50;99.90;;;;;;5081884;28;20020;-54
2023/02/05 09:01:05;;;;;;;10.05;5.78;;;20.50;99.90;;;;;;5057195;28;20068;-54
2023/02/05 09:03:31;;;;;;;9.15;6.60;;;20.60;99.90;;;;;;5052674;28;20127;-54
2023/02/05 09:05:58;;;;;;;9.93;6.30;;;20.60;99.90;;;;;;5053595;28;20037;-54
2023/02/05 09:08:25;;;;;;;9.23;6.50;;;20.60;99.90;;;;;;5068785;28;20367;-54
2023/02/05 09:10:51;;;;;;;8.02;5.97;;;20.60;99.90;;;;;;5064376;28;20974;-57
2023/02/05 09:13:17;;;;;;;9.45;5.75;;;20.60;99.90;;;;;;5056940;28;20446;-53
2023/02/05 09:15:44;;;;;;;10.30;5.95;;;20.60;99.90;;;;;;5051120;28;20090;-53
2023/02/05 09:18:09;;;;;;;10.27;5.95;;;20.60;99.90;;;;;;5053517;28;20035;-54
2023/02/05 09:20:40;;;;;;;8.52;6.03;;;20.70;99.90;;;;;;5054254;28;20025;-54
2023/02/05 09:23:08;;;;;;;10.38;6.97;;;20.70;99.90;;;;;;5055212;28;20024;-54
2023/02/05 09:25:33;;;;;;;9.70;6.60;;;20.70;99.90;;;;;;5053657;28;20108;-54
2023/02/05 09:27:59;;;;;;;9.52;6.03;;;20.70;99.90;;;;;;5051416;28;20132;-54
2023/02/05 09:30:25;;;;;;;10.30;6.18;;;20.70;99.90;;;;;;5065868;28;20103;-54
2023/02/05 09:32:51;;;;;;;13.35;6.38;;;20.80;99.90;;;;;;5068228;28;20138;-55
2023/02/05 09:35:16;;;;;;;14.60;5.65;;;20.80;99.90;;;;;;5067718;28;20032;-55
2023/02/05 09:37:42;;;;;;;16.13;6.30;;;20.80;99.90;;;;;;5063847;28;20027;-55
2023/02/05 09:40:19;;;;;;;8.80;5.63;;;20.80;99.90;;;;;;5060409;28;20379;-57
2023/02/05 09:43:01;;;;;;;13.60;6.63;;;20.80;99.90;;;;;;5061746;28;20031;-57
2023/02/05 09:45:48;;;;;;;10.77;5.65;;;20.90;99.90;;;;;;5065071;28;20392;-56
2023/02/05 09:48:52;;;;;;;8.55;5.75;;;20.90;99.90;;;;;;5049406;28;20075;-55
2023/02/05 09:51:36;;;;;;;12.15;6.40;;;20.90;99.90;;;;;;5059844;28;20033;-53
2023/02/05 09:54:11;;;;;;;11.60;7.50;;;21.00;99.90;;;;;;5036063;28;20465;-56
2023/02/05 09:56:37;;;;;;;12.50;8.18;;;21.00;99.90;;;;;;5065661;28;20024;-56
2023/02/05 09:59:04;;;;;;;13.60;8.43;;;21.00;99.90;;;;;;5071233;28;20035;-56
2023/02/05 10:01:49;;;;;;;15.70;9.02;;;21.10;99.90;;;;;;5058060;28;20048;-56
2023/02/05 10:04:15;;;;;;;14.38;9.25;;;21.10;99.90;;;;;;5068377;28;20560;-57
2023/02/05 10:07:06;;;;;;;17.20;10.30;;;21.10;99.90;;;;;;5053445;28;20069;-50
2023/02/05 10:09:43;;;;;;;20.08;9.63;;;21.10;99.90;;;;;;5069971;28;20075;-55
2023/02/05 10:12:14;;;;;;;19.80;10.55;;;21.20;99.90;;;;;;5054834;28;20021;-56
2023/02/05 10:14:43;;;;;;;15.13;9.57;;;21.20;99.90;;;;;;5067103;28;20039;-55
2023/02/05 10:17:30;;;;;;;16.90;9.77;;;21.20;99.90;;;;;;5071025;28;20051;-56
2023/02/05 10:20:44;;;;;;;18.23;10.30;;;21.30;99.90;;;;;;5070293;28;20686;-56
2023/02/05 10:23:16;;;;;;;16.10;9.65;;;21.30;99.90;;;;;;5052985;28;20093;-56
2023/02/05 10:26:11;;;;;;;16.45;10.20;;;21.40;99.90;;;;;;5071214;28;20474;-57
2023/02/05 10:28:52;;;;;;;16.45;9.82;;;21.40;99.90;;;;;;5058960;28;20032;-58
2023/02/05 10:31:18;;;;;;;19.77;10.60;;;21.50;99.90;;;;;;5063246;28;20029;-56
2023/02/05 10:33:54;;;;;;;16.65;10.52;;;21.60;99.90;;;;;;5054407;28;20493;-62
2023/02/05 10:36:23;;;;;;;15.47;10.37;;;21.60;99.90;;;;;;5064699;28;20025;-56
2023/02/05 10:38:51;;;;;;;21.02;11.10;;;21.60;99.90;;;;;;5070573;28;20407;-56
2023/02/05 10:41:23;;;;;;;15.82;9.38;;;21.70;99.90;;;;;;5054410;28;20572;-55
2023/02/05 10:44:14;;;;;;;16.60;9.70;;;21.70;99.90;;;;;;5067718;28;20530;-56
2023/02/05 10:46:42;;;;;;;22.67;10.05;;;21.70;99.90;;;;;;5070683;28;20505;-56
2023/02/05 10:49:47;;;;;;;21.60;10.93;;;21.80;99.90;;;;;;5061999;28;20104;-56
2023/02/05 10:52:15;;;;;;;18.65;10.65;;;21.80;99.90;;;;;;5071402;28;20817;-59
2023/02/05 10:54:41;;;;;;;18.38;10.02;;;21.90;99.90;;;;;;5069661;28;20091;-56
2023/02/05 10:57:16;;;;;;;16.08;10.43;;;21.90;99.90;;;;;;5066470;28;20032;-55
2023/02/05 10:59:54;;;;;;;14.48;9.77;;;22.00;99.90;;;;;;5064376;28;20164;-56
2023/02/05 11:02:21;;;;;;;16.17;9.80;;;22.00;99.90;;;;;;5061776;28;20498;-55
2023/02/05 11:04:55;;;;;;;11.75;9.43;;;22.10;99.90;;;;;;5067469;28;20152;-55
2023/02/05 11:07:31;;;;;;;15.52;9.68;;;22.10;99.90;;;;;;5054504;28;20525;-56
2023/02/05 11:10:16;;;;;;;14.07;9.63;;;22.10;99.90;;;;;;5056196;28;20020;-56
2023/02/05 11:12:48;;;;;;;14.90;8.90;;;22.20;99.90;;;;;;5066856;28;20053;-57
2023/02/05 11:15:20;;;;;;;12.73;8.23;;;22.20;99.90;;;;;;5069352;28;20017;-56
2023/02/05 11:18:20;;;;;;;13.65;8.60;;;22.30;99.90;;;;;;5054141;28;20032;-57
2023/02/05 11:20:55;;;;;;;10.77;7.97;;;22.30;99.90;;;;;;5062399;28;20356;-57
2023/02/05 11:23:23;;;;;;;12.70;8.70;;;22.30;99.90;;;;;;5067614;28;20043;-56
2023/02/05 11:25:49;;;;;;;13.10;8.20;;;22.40;99.90;;;;;;5059410;28;20027;-55
2023/02/05 11:28:27;;;;;;;13.43;8.80;;;22.40;99.90;;;;;;5058574;28;20383;-55
2023/02/05 11:30:53;;;;;;;11.77;8.30;;;22.40;99.90;;;;;;5055624;28;20025;-56
2023/02/05 11:33:22;;;;;;;10.73;7.72;;;22.40;99.90;;;;;;5052900;28;20379;-56
2023/02/05 11:35:54;;;;;;;12.68;8.35;;;22.50;99.90;;;;;;5052408;28;20502;-56
2023/02/05 11:38:32;;;;;;;13.43;8.23;;;22.50;99.90;;;;;;5052700;28;20028;-56
2023/02/05 11:41:04;;;;;;;11.93;7.75;;;22.50;99.90;;;;;;5060930;28;20315;-58
2023/02/05 11:43:39;;;;;;;11.95;7.85;;;22.60;99.90;;;;;;5064778;28;20020;-57
2023/02/05 11:46:13;;;;;;;13.70;8.02;;;22.60;99.90;;;;;;5066764;28;20032;-56
2023/02/05 11:49:04;;;;;;;13.93;7.85;;;22.60;99.90;;;;;;5053236;28;20071;-58
2023/02/05 11:51:43;;;;;;;13.10;6.53;;;22.60;99.90;;;;;;5067838;28;20123;-59
2023/02/05 11:54:31;;;;;;;11.60;4.78;;;22.70;99.90;;;;;;5071807;28;20021;-51
2023/02/05 11:57:18;;;;;;;12.55;5.47;;;22.70;99.90;;;;;;5064156;28;20025;-49
2023/02/05 12:00:15;;;;;;;;;;;22.70;99.90;;;;;;5067739;28;20033;-54
2023/02/05 12:02:42;;;;;;;8.85;4.28;;;22.80;99.90;;;;;;5049960;28;19913;-55
2023/02/05 12:05:39;;;;;;;6.50;3.78;;;22.80;99.90;;;;;;5061159;28;20075;-54
2023/02/05 12:08:31;;;;;;;7.13;4.13;;;22.80;99.90;;;;;;5072882;28;20489;-53
2023/02/05 12:11:59;;;;;;;7.18;4.00;;;22.90;99.90;;;;;;5089823;28;20530;-55
2023/02/05 12:14:44;;;;;;;8.85;4.10;;;22.90;99.90;;;;;;5057278;28;20033;-57
2023/02/05 12:17:30;;;;;;;6.22;4.05;;;22.90;99.90;;;;;;5062483;28;20056;-57
2023/02/05 12:20:31;;;;;;;10.90;4.40;;;22.90;99.90;;;;;;5072342;28;20091;-57
2023/02/05 12:23:23;;;;;;;9.52;4.97;;;22.90;99.90;;;;;;5068971;28;20041;-57
2023/02/05 12:26:10;;;;;;;9.30;4.53;;;22.90;99.90;;;;;;5071170;28;20039;-58
2023/02/05 12:29:02;;;;;;;;;;;23.00;99.90;;;;;;5072344;28;20073;-58
2023/02/05 12:32:07;;;;;;;8.57;4.53;;;23.00;99.90;;;;;;5041193;28;20300;-57
2023/02/05 12:34:58;;;;;;;7.25;3.92;;;23.00;99.90;;;;;;5023104;28;20032;-56
2023/02/05 12:37:40;;;;;;;13.07;4.88;;;23.00;99.90;;;;;;5071592;28;20024;-56
2023/02/05 12:40:18;;;;;;;6.60;3.97;;;23.00;99.90;;;;;;5072735;28;20016;-56
2023/02/05 12:43:16;;;;;;;8.30;4.20;;;23.00;99.90;;;;;;5072630;28;20029;-56
2023/02/05 12:45:58;;;;;;;10.25;4.93;;;23.00;99.90;;;;;;5068759;28;20552;-56
2023/02/05 12:48:37;;;;;;;10.40;4.82;;;23.10;99.90;;;;;;5069326;28;20028;-57
2023/02/05 12:51:21;;;;;;;8.65;4.55;;;23.10;99.90;;;;;;5069163;28;20017;-58
2023/02/05 12:54:11;;;;;;;6.97;4.15;;;23.10;99.90;;;;;;5077175;28;20188;-58
2023/02/05 12:56:59;;;;;;;6.18;4.07;;;23.10;99.90;;;;;;5089793;28;20027;-56
2023/02/05 12:59:39;;;;;;;9.30;4.53;;;23.20;99.90;;;;;;5078319;28;20043;-59
2023/02/05 13:02:13;;;;;;;7.05;3.92;;;23.20;99.90;;;;;;5087826;28;20047;-57
2023/02/05 13:04:44;;;;;;;8.65;4.15;;;23.20;99.90;;;;;;5086933;28;20028;-56
2023/02/05 13:07:51;;;;;;;5.10;3.72;;;23.30;99.90;;;;;;5091302;28;20118;-58
2023/02/05 13:10:22;;;;;;;7.75;4.53;;;23.30;99.90;;;;;;5066524;28;20547;-60